sensor_id;sensor_type;location;lat;lon;timestamp;pressure;altitude;pressure_sealevel;temperature;humidity
32789;BME280;19141;48.980;8.410;2023-08-17T04:22:33;100253.00;;;18.03;100.00
32789;BME280;19141;48.980;8.410;2023-08-17T04:24:59;100257.81;;;18.01;100.00
32789;BME280;19141;48.980;8.410;2023-08-17T04:27:24;100255.94;;;18.02;100.00
32789;BME280;19141;48.980;8.410;2023-08-17T04:29:50;100249.94;;;18.00;100.00
32789;BME280;19141;48.980;8.410;2023-08-17T04:32:16;100262.13;;;18.02;100.00
32789;BME280;19141;48.980;8.410;2023-08-17T04:34:43;100265.66;;;18.03;100.00
32789;BME280;19141;48.980;8.410;2023-08-17T04:37:08;100259.81;;;18.06;100.00
32789;BME280;19141;48.980;8.410;2023-08-17T04:39:34;100269.13;;;18.10;100.00
32789;BME280;19141;48.980;8.410;2023-08-17T04:42:00;100264.53;;;18.10;100.00
32789;BME280;19141;48.980;8.410;2023-08-17T04:44:30;100269.50;;;18.13;100.00
32789;BME280;19141;48.980;8.410;2023-08-17T04:46:56;100273.63;;;18.16;100.00
32789;BME280;19141;48.980;8.410;2023-08-17T04:49:22;100277.97;;;18.17;100.00
32789;BME280;19141;48.980;8.410;2023-08-17T04:51:47;100275.72;;;18.14;100.00
32789;BME280;19141;48.980;8.410;2023-08-17T04:54:13;100283.13;;;18.18;100.00
32789;BME280;19141;48.980;8.410;2023-08-17T04:56:38;100272.72;;;18.22;100.00
32789;BME280;19141;48.980;8.410;2023-08-17T04:59:04;100274.16;;;18.25;100.00
32789;BME280;19141;48.980;8.410;2023-08-17T05:01:29;100280.97;;;18.27;100.00
32789;BME280;19141;48.980;8.410;2023-08-17T05:03:54;100279.28;;;18.33;100.00
32789;BME280;19141;48.980;8.410;2023-08-17T05:06:20;100280.91;;;18.34;100.00
32789;BME280;19141;48.980;8.410;2023-08-17T05:08:46;100284.78;;;18.38;100.00
32789;BME280;19141;48.980;8.410;2023-08-17T05:11:11;100281.66;;;18.41;100.00
32789;BME280;19141;48.980;8.410;2023-08-17T05:13:38;100276.13;;;18.36;100.00
32789;BME280;19141;48.980;8.410;2023-08-17T05:16:04;100279.34;;;18.44;100.00
32789;BME280;19141;48.980;8.410;2023-08-17T05:18:31;100285.13;;;18.48;100.00
32789;BME280;19141;48.980;8.410;2023-08-17T05:20:56;100289.22;;;18.51;100.00
32789;BME280;19141;48.980;8.410;2023-08-17T05:23:21;100291.72;;;18.52;100.00
32789;BME280;19141;48.980;8.410;2023-08-17T05:25:47;100299.13;;;18.57;100.00
32789;BME280;19141;48.980;8.410;2023-08-17T05:28:13;100296.41;;;18.57;100.00
32789;BME280;19141;48.980;8.410;2023-08-17T05:30:39;100296.81;;;18.60;100.00
32789;BME280;19141;48.980;8.410;2023-08-17T05:33:04;100296.97;;;18.65;100.00
32789;BME280;19141;48.980;8.410;2023-08-17T05:35:30;100291.97;;;18.69;100.00
32789;BME280;19141;48.980;8.410;2023-08-17T05:37:57;100289.66;;;18.73;100.00
32789;BME280;19141;48.980;8.410;2023-08-17T05:40:22;100294.59;;;18.76;100.00
32789;BME280;19141;48.980;8.410;2023-08-17T05:42:47;100299.75;;;18.77;100.00
32789;BME280;19141;48.980;8.410;2023-08-17T05:45:13;100297.22;;;18.82;100.00
32789;BME280;19141;48.980;8.410;2023-08-17T05:47:38;100302.38;;;18.84;100.00
32789;BME280;19141;48.980;8.410;2023-08-17T05:50:04;100303.81;;;18.86;100.00
32789;BME280;19141;48.980;8.410;2023-08-17T05:52:29;100304.41;;;18.88;100.00
32789;BME280;19141;48.980;8.410;2023-08-17T05:54:55;100314.28;;;18.94;100.00
32789;BME280;19141;48.980;8.410;2023-08-17T05:57:20;100309.72;;;18.95;100.00
32789;BME280;19141;48.980;8.410;2023-08-17T05:59:45;100316.75;;;18.96;100.00
32789;BME280;19141;48.980;8.410;2023-08-17T06:02:11;100310.44;;;19.02;100.00
32789;BME280;19141;48.980;8.410;2023-08-17T06:04:36;100320.81;;;19.05;100.00
32789;BME280;19141;48.980;8.410;2023-08-17T06:07:02;100321.41;;;19.07;100.00
32789;BME280;19141;48.980;8.410;2023-08-17T06:09:27;100321.16;;;19.09;100.00
32789;BME280;19141;48.980;8.410;2023-08-17T06:11:52;100318.69;;;19.07;100.00
32789;BME280;19141;48.980;8.410;2023-08-17T06:14:18;100317.78;;;19.13;100.00
32789;BME280;19141;48.980;8.410;2023-08-17T06:16:43;100319.00;;;19.17;100.00
32789;BME280;19141;48.980;8.410;2023-08-17T06:19:09;100315.25;;;19.18;100.00
32789;BME280;19141;48.980;8.410;2023-08-17T06:21:34;100319.13;;;19.22;100.00
32789;BME280;19141;48.980;8.410;2023-08-17T06:23:59;100321.97;;;19.28;100.00
32789;BME280;19141;48.980;8.410;2023-08-17T06:26:25;100322.34;;;19.31;100.00
32789;BME280;19141;48.980;8.410;2023-08-17T06:28:50;100322.69;;;19.35;100.00
32789;BME280;19141;48.980;8.410;2023-08-17T06:31:16;100319.41;;;19.33;100.00
32789;BME280;19141;48.980;8.410;2023-08-17T06:33:41;100320.97;;;19.40;100.00
32789;BME280;19141;48.980;8.410;2023-08-17T06:36:07;100324.63;;;19.46;100.00
32789;BME280;19141;48.980;8.410;2023-08-17T06:38:32;100317.56;;;19.45;100.00
32789;BME280;19141;48.980;8.410;2023-08-17T06:40:57;100322.28;;;19.49;100.00
32789;BME280;19141;48.980;8.410;2023-08-17T06:43:23;100317.72;;;19.50;100.00
32789;BME280;19141;48.980;8.410;2023-08-17T06:45:48;100313.47;;;19.54;100.00
32789;BME280;19141;48.980;8.410;2023-08-17T06:48:14;100315.53;;;19.59;100.00
32789;BME280;19141;48.980;8.410;2023-08-17T06:50:39;100319.19;;;19.64;100.00
32789;BME280;19141;48.980;8.410;2023-08-17T06:53:04;100320.03;;;19.65;100.00
32789;BME280;19141;48.980;8.410;2023-08-17T06:55:30;100303.09;;;19.58;100.00
32789;BME280;19141;48.980;8.410;2023-08-17T06:57:56;100321.81;;;19.71;100.00
32789;BME280;19141;48.980;8.410;2023-08-17T07:00:22;100320.25;;;19.75;100.00
32789;BME280;19141;48.980;8.410;2023-08-17T07:02:48;100318.84;;;19.72;100.00
32789;BME280;19141;48.980;8.410;2023-08-17T07:05:17;100324.41;;;19.77;100.00
32789;BME280;19141;48.980;8.410;2023-08-17T07:07:43;100326.88;;;19.79;100.00
32789;BME280;19141;48.980;8.410;2023-08-17T07:10:10;100325.94;;;19.85;100.00
32789;BME280;19141;48.980;8.410;2023-08-17T07:12:37;100326.75;;;19.86;100.00
32789;BME280;19141;48.980;8.410;2023-08-17T07:15:02;100328.78;;;19.90;100.00
32789;BME280;19141;48.980;8.410;2023-08-17T07:17:29;100332.53;;;19.89;100.00
32789;BME280;19141;48.980;8.410;2023-08-17T07:19:55;100329.72;;;19.96;100.00
32789;BME280;19141;48.980;8.410;2023-08-17T07:22:20;100329.94;;;19.94;100.00
32789;BME280;19141;48.980;8.410;2023-08-17T07:24:46;100323.25;;;19.97;100.00
32789;BME280;19141;48.980;8.410;2023-08-17T07:27:11;100325.72;;;19.98;100.00
32789;BME280;19141;48.980;8.410;2023-08-17T07:29:36;100328.81;;;20.02;100.00
32789;BME280;19141;48.980;8.410;2023-08-17T07:32:02;100320.06;;;20.00;100.00
32789;BME280;19141;48.980;8.410;2023-08-17T07:34:30;100324.31;;;20.08;100.00
32789;BME280;19141;48.980;8.410;2023-08-17T07:36:57;100319.63;;;20.15;100.00
32789;BME280;19141;48.980;8.410;2023-08-17T07:39:22;100314.00;;;20.16;100.00
32789;BME280;19141;48.980;8.410;2023-08-17T07:41:48;100309.66;;;20.15;100.00
32789;BME280;19141;48.980;8.410;2023-08-17T07:44:13;100310.94;;;20.24;100.00
32789;BME280;19141;48.980;8.410;2023-08-17T07:46:38;100312.69;;;20.30;100.00
32789;BME280;19141;48.980;8.410;2023-08-17T07:49:04;100315.53;;;20.36;100.00
32789;BME280;19141;48.980;8.410;2023-08-17T07:51:29;100320.94;;;20.47;100.00
32789;BME280;19141;48.980;8.410;2023-08-17T07:53:57;100319.91;;;20.48;100.00
32789;BME280;19141;48.980;8.410;2023-08-17T07:56:23;100334.13;;;20.55;100.00
32789;BME280;19141;48.980;8.410;2023-08-17T07:58:49;100344.22;;;20.60;100.00
32789;BME280;19141;48.980;8.410;2023-08-17T08:01:14;100338.09;;;20.65;100.00
32789;BME280;19141;48.980;8.410;2023-08-17T08:03:40;100344.94;;;20.67;100.00
32789;BME280;19141;48.980;8.410;2023-08-17T08:06:05;100344.47;;;20.70;100.00
32789;BME280;19141;48.980;8.410;2023-08-17T08:08:30;100335.63;;;20.75;100.00
32789;BME280;19141;48.980;8.410;2023-08-17T08:10:56;100340.31;;;20.79;100.00
32789;BME280;19141;48.980;8.410;2023-08-17T08:13:21;100339.22;;;20.92;100.00
32789;BME280;19141;48.980;8.410;2023-08-17T08:15:47;100334.03;;;21.02;100.00
32789;BME280;19141;48.980;8.410;2023-08-17T08:18:12;100335.34;;;21.00;100.00
32789;BME280;19141;48.980;8.410;2023-08-17T08:20:37;100337.19;;;21.11;100.00
32789;BME280;19141;48.980;8.410;2023-08-17T08:23:03;100333.50;;;21.17;100.00
32789;BME280;19141;48.980;8.410;2023-08-17T08:25:28;100340.22;;;21.26;100.00
32789;BME280;19141;48.980;8.410;2023-08-17T08:27:54;100341.50;;;21.24;100.00
32789;BME280;19141;48.980;8.410;2023-08-17T08:30:19;100346.81;;;21.19;100.00
32789;BME280;19141;48.980;8.410;2023-08-17T08:32:45;100348.81;;;21.23;100.00
32789;BME280;19141;48.980;8.410;2023-08-17T08:35:10;100348.81;;;21.23;100.00
32789;BME280;19141;48.980;8.410;2023-08-17T08:37:36;100345.59;;;21.38;100.00
32789;BME280;19141;48.980;8.410;2023-08-17T08:40:01;100344.31;;;21.40;100.00
32789;BME280;19141;48.980;8.410;2023-08-17T08:42:26;100345.56;;;21.50;100.00
32789;BME280;19141;48.980;8.410;2023-08-17T08:44:52;100340.91;;;21.62;100.00
32789;BME280;19141;48.980;8.410;2023-08-17T08:47:18;100349.44;;;21.71;100.00
32789;BME280;19141;48.980;8.410;2023-08-17T08:50:04;100345.97;;;21.87;100.00
32789;BME280;19141;48.980;8.410;2023-08-17T08:52:34;100351.63;;;21.85;100.00
32789;BME280;19141;48.980;8.410;2023-08-17T08:55:08;100347.28;;;22.01;100.00
32789;BME280;19141;48.980;8.410;2023-08-17T08:57:35;100350.19;;;22.11;100.00
32789;BME280;19141;48.980;8.410;2023-08-17T09:00:02;100343.13;;;22.27;100.00
32789;BME280;19141;48.980;8.410;2023-08-17T09:02:28;100343.44;;;22.31;100.00
32789;BME280;19141;48.980;8.410;2023-08-17T09:04:53;100335.13;;;22.37;100.00
32789;BME280;19141;48.980;8.410;2023-08-17T09:07:19;100339.63;;;22.48;100.00
32789;BME280;19141;48.980;8.410;2023-08-17T09:09:47;100329.41;;;22.56;100.00
32789;BME280;19141;48.980;8.410;2023-08-17T09:12:13;100333.03;;;22.61;100.00
32789;BME280;19141;48.980;8.410;2023-08-17T09:14:38;100320.09;;;22.68;100.00
32789;BME280;19141;48.980;8.410;2023-08-17T09:17:06;100318.34;;;22.79;100.00
32789;BME280;19141;48.980;8.410;2023-08-17T09:19:32;100321.13;;;22.84;100.00
32789;BME280;19141;48.980;8.410;2023-08-17T09:21:59;100322.53;;;22.87;100.00
32789;BME280;19141;48.980;8.410;2023-08-17T09:24:33;100322.41;;;22.98;100.00
32789;BME280;19141;48.980;8.410;2023-08-17T09:26:59;100326.19;;;22.97;100.00
32789;BME280;19141;48.980;8.410;2023-08-17T09:29:25;100322.88;;;22.90;100.00
32789;BME280;19141;48.980;8.410;2023-08-17T09:31:51;100322.28;;;22.88;100.00
32789;BME280;19141;48.980;8.410;2023-08-17T09:34:16;100323.13;;;22.89;100.00
32789;BME280;19141;48.980;8.410;2023-08-17T09:36:41;100329.47;;;22.99;100.00
32789;BME280;19141;48.980;8.410;2023-08-17T09:39:07;100328.28;;;22.90;100.00
32789;BME280;19141;48.980;8.410;2023-08-17T09:41:40;100314.59;;;23.02;100.00
32789;BME280;19141;48.980;8.410;2023-08-17T09:44:06;100311.34;;;22.83;100.00
32789;BME280;19141;48.980;8.410;2023-08-17T09:46:32;100307.34;;;23.13;100.00
32789;BME280;19141;48.980;8.410;2023-08-17T09:48:57;100319.44;;;23.49;100.00
32789;BME280;19141;48.980;8.410;2023-08-17T09:51:23;100319.13;;;23.72;100.00
32789;BME280;19141;48.980;8.410;2023-08-17T09:53:52;100322.72;;;23.78;99.01
32789;BME280;19141;48.980;8.410;2023-08-17T09:56:21;100319.97;;;23.73;98.38
32789;BME280;19141;48.980;8.410;2023-08-17T09:58:48;100314.31;;;23.79;97.96
32789;BME280;19141;48.980;8.410;2023-08-17T10:01:14;100306.84;;;23.97;96.70
32789;BME280;19141;48.980;8.410;2023-08-17T10:03:43;100313.59;;;23.89;96.30
32789;BME280;19141;48.980;8.410;2023-08-17T10:06:12;100306.50;;;24.25;94.81
32789;BME280;19141;48.980;8.410;2023-08-17T10:08:49;100309.63;;;24.39;94.66
32789;BME280;19141;48.980;8.410;2023-08-17T10:11:19;100311.16;;;24.30;92.66
32789;BME280;19141;48.980;8.410;2023-08-17T10:13:59;100320.81;;;24.43;93.46
32789;BME280;19141;48.980;8.410;2023-08-17T10:16:36;100320.38;;;24.61;92.40
32789;BME280;19141;48.980;8.410;2023-08-17T10:19:13;100316.34;;;24.74;90.82
32789;BME280;19141;48.980;8.410;2023-08-17T10:21:47;100318.03;;;24.85;89.29
32789;BME280;19141;48.980;8.410;2023-08-17T10:24:13;100306.34;;;24.95;89.52
32789;BME280;19141;48.980;8.410;2023-08-17T10:26:39;100313.31;;;25.33;89.14
32789;BME280;19141;48.980;8.410;2023-08-17T10:29:04;100316.69;;;25.76;89.95
32789;BME280;19141;48.980;8.410;2023-08-17T10:31:34;100321.00;;;26.28;84.86
32789;BME280;19141;48.980;8.410;2023-08-17T10:34:00;100321.56;;;26.30;84.81
32789;BME280;19141;48.980;8.410;2023-08-17T10:36:26;100324.38;;;27.04;78.64
32789;BME280;19141;48.980;8.410;2023-08-17T10:39:27;100326.09;;;27.84;77.98
32789;BME280;19141;48.980;8.410;2023-08-17T10:41:53;100328.34;;;28.69;69.84
32789;BME280;19141;48.980;8.410;2023-08-17T10:44:38;100336.53;;;28.98;66.57
32789;BME280;19141;48.980;8.410;2023-08-17T10:47:26;100327.28;;;29.13;65.58
32789;BME280;19141;48.980;8.410;2023-08-17T10:50:01;100336.28;;;28.95;65.98
32789;BME280;19141;48.980;8.410;2023-08-17T10:52:29;100326.94;;;28.72;71.48
32789;BME280;19141;48.980;8.410;2023-08-17T10:54:55;100330.91;;;28.36;69.37
32789;BME280;19141;48.980;8.410;2023-08-17T11:00:23;100340.28;;;28.25;72.76
32789;BME280;19141;48.980;8.410;2023-08-17T11:02:59;100339.47;;;28.78;71.66
32789;BME280;19141;48.980;8.410;2023-08-17T11:07:59;100328.41;;;28.06;67.70
32789;BME280;19141;48.980;8.410;2023-08-17T11:12:53;100327.41;;;28.26;74.95
32789;BME280;19141;48.980;8.410;2023-08-17T11:15:23;100330.72;;;28.52;71.54
32789;BME280;19141;48.980;8.410;2023-08-17T11:17:48;100321.09;;;28.54;77.00
32789;BME280;19141;48.980;8.410;2023-08-17T11:20:14;100315.84;;;29.06;64.38
32789;BME280;19141;48.980;8.410;2023-08-17T11:22:39;100308.38;;;29.11;69.21
32789;BME280;19141;48.980;8.410;2023-08-17T11:25:05;100299.94;;;29.45;69.86
32789;BME280;19141;48.980;8.410;2023-08-17T11:27:31;100309.16;;;29.55;63.54
32789;BME280;19141;48.980;8.410;2023-08-17T11:29:56;100320.63;;;29.76;65.60
32789;BME280;19141;48.980;8.410;2023-08-17T11:32:21;100329.88;;;29.23;65.96
32789;BME280;19141;48.980;8.410;2023-08-17T11:34:47;100342.53;;;28.76;66.07
32789;BME280;19141;48.980;8.410;2023-08-17T11:37:12;100352.94;;;28.16;70.00
32789;BME280;19141;48.980;8.410;2023-08-17T11:39:38;100347.59;;;28.01;73.58
32789;BME280;19141;48.980;8.410;2023-08-17T11:42:04;100338.06;;;27.59;76.48
32789;BME280;19141;48.980;8.410;2023-08-17T11:44:29;100332.56;;;27.59;76.43
32789;BME280;19141;48.980;8.410;2023-08-17T11:46:55;100337.84;;;27.90;77.04
32789;BME280;19141;48.980;8.410;2023-08-17T11:49:20;100337.91;;;27.84;74.64
32789;BME280;19141;48.980;8.410;2023-08-17T11:51:48;100360.88;;;27.83;74.40
32789;BME280;19141;48.980;8.410;2023-08-17T11:54:14;100364.13;;;27.46;74.77
32789;BME280;19141;48.980;8.410;2023-08-17T11:56:39;100370.63;;;26.86;78.06
32789;BME280;19141;48.980;8.410;2023-08-17T11:59:08;100362.53;;;26.40;78.54
32789;BME280;19141;48.980;8.410;2023-08-17T12:01:36;100351.59;;;26.30;80.92
32789;BME280;19141;48.980;8.410;2023-08-17T12:04:04;100343.41;;;26.30;82.34
32789;BME280;19141;48.980;8.410;2023-08-17T12:06:30;100350.22;;;26.27;82.99
32789;BME280;19141;48.980;8.410;2023-08-17T12:08:56;100357.06;;;26.04;84.54
32789;BME280;19141;48.980;8.410;2023-08-17T12:11:24;100351.06;;;26.07;82.77
32789;BME280;19141;48.980;8.410;2023-08-17T12:13:51;100347.50;;;26.02;83.02
32789;BME280;19141;48.980;8.410;2023-08-17T12:16:17;100342.59;;;26.19;84.05
32789;BME280;19141;48.980;8.410;2023-08-17T12:18:50;100333.84;;;26.37;82.37
32789;BME280;19141;48.980;8.410;2023-08-17T12:21:19;100326.72;;;26.62;82.73
32789;BME280;19141;48.980;8.410;2023-08-17T12:23:45;100330.00;;;26.64;79.79
32789;BME280;19141;48.980;8.410;2023-08-17T12:26:18;100325.72;;;27.12;77.37
32789;BME280;19141;48.980;8.410;2023-08-17T12:28:43;100328.28;;;27.43;76.05
32789;BME280;19141;48.980;8.410;2023-08-17T12:31:09;100334.56;;;27.88;74.10
32789;BME280;19141;48.980;8.410;2023-08-17T12:33:35;100326.81;;;28.29;69.46
32789;BME280;19141;48.980;8.410;2023-08-17T12:36:00;100311.97;;;28.64;67.28
32789;BME280;19141;48.980;8.410;2023-08-17T12:38:26;100304.81;;;29.11;65.44
32789;BME280;19141;48.980;8.410;2023-08-17T12:40:51;100307.16;;;29.41;63.54
32789;BME280;19141;48.980;8.410;2023-08-17T12:43:17;100310.34;;;29.67;61.53
32789;BME280;19141;48.980;8.410;2023-08-17T12:45:42;100308.88;;;29.13;69.05
32789;BME280;19141;48.980;8.410;2023-08-17T12:48:10;100305.66;;;29.68;65.67
32789;BME280;19141;48.980;8.410;2023-08-17T12:50:36;100294.47;;;29.97;61.99
32789;BME280;19141;48.980;8.410;2023-08-17T12:53:01;100281.47;;;29.70;61.52
32789;BME280;19141;48.980;8.410;2023-08-17T12:55:26;100275.63;;;29.58;63.92
32789;BME280;19141;48.980;8.410;2023-08-17T12:57:52;100275.19;;;29.32;62.24
32789;BME280;19141;48.980;8.410;2023-08-17T13:00:17;100273.84;;;29.48;63.81
32789;BME280;19141;48.980;8.410;2023-08-17T13:02:43;100278.59;;;29.61;64.52
32789;BME280;19141;48.980;8.410;2023-08-17T13:05:10;100270.13;;;29.58;62.50
32789;BME280;19141;48.980;8.410;2023-08-17T13:07:35;100273.91;;;29.24;63.94
32789;BME280;19141;48.980;8.410;2023-08-17T13:10:01;100272.00;;;29.43;62.38
32789;BME280;19141;48.980;8.410;2023-08-17T13:12:26;100266.81;;;29.23;65.00
32789;BME280;19141;48.980;8.410;2023-08-17T13:14:51;100258.94;;;29.35;66.22
32789;BME280;19141;48.980;8.410;2023-08-17T13:17:17;100253.78;;;29.15;66.94
32789;BME280;19141;48.980;8.410;2023-08-17T13:19:42;100251.03;;;29.15;65.38
32789;BME280;19141;48.980;8.410;2023-08-17T13:22:08;100245.19;;;29.22;64.65
32789;BME280;19141;48.980;8.410;2023-08-17T13:24:34;100246.31;;;28.54;68.30
32789;BME280;19141;48.980;8.410;2023-08-17T13:26:59;100251.72;;;28.11;69.61
32789;BME280;19141;48.980;8.410;2023-08-17T13:29:24;100239.38;;;28.61;68.47
32789;BME280;19141;48.980;8.410;2023-08-17T13:31:50;100231.59;;;28.69;68.87
32789;BME280;19141;48.980;8.410;2023-08-17T13:34:15;100224.53;;;28.86;66.24
32789;BME280;19141;48.980;8.410;2023-08-17T13:36:40;100215.41;;;28.91;67.05
32789;BME280;19141;48.980;8.410;2023-08-17T13:39:06;100211.84;;;28.72;66.06
32789;BME280;19141;48.980;8.410;2023-08-17T13:41:32;100197.66;;;29.07;65.62
32789;BME280;19141;48.980;8.410;2023-08-17T13:43:57;100207.75;;;28.93;64.76
32789;BME280;19141;48.980;8.410;2023-08-17T13:46:23;100197.91;;;28.87;66.48
32789;BME280;19141;48.980;8.410;2023-08-17T13:48:48;100204.69;;;28.95;67.09
32789;BME280;19141;48.980;8.410;2023-08-17T13:51:14;100197.28;;;29.14;64.44
32789;BME280;19141;48.980;8.410;2023-08-17T13:53:39;100201.56;;;29.20;63.89
32789;BME280;19141;48.980;8.410;2023-08-17T13:56:05;100204.91;;;29.17;64.70
32789;BME280;19141;48.980;8.410;2023-08-17T13:58:31;100190.78;;;29.10;65.97
32789;BME280;19141;48.980;8.410;2023-08-17T14:00:56;100186.41;;;29.09;68.37
32789;BME280;19141;48.980;8.410;2023-08-17T14:03:22;100185.63;;;28.84;68.80
32789;BME280;19141;48.980;8.410;2023-08-17T14:05:48;100193.41;;;28.77;69.01
32789;BME280;19141;48.980;8.410;2023-08-17T14:08:14;100187.13;;;28.77;70.68
32789;BME280;19141;48.980;8.410;2023-08-17T14:10:39;100188.31;;;28.71;69.92
32789;BME280;19141;48.980;8.410;2023-08-17T14:13:05;100177.81;;;28.97;69.38
32789;BME280;19141;48.980;8.410;2023-08-17T14:15:30;100177.13;;;29.05;66.95
32789;BME280;19141;48.980;8.410;2023-08-17T14:17:56;100176.16;;;28.77;69.31
32789;BME280;19141;48.980;8.410;2023-08-17T14:20:21;100177.34;;;28.71;69.03
32789;BME280;19141;48.980;8.410;2023-08-17T14:22:46;100176.72;;;28.74;68.55
32789;BME280;19141;48.980;8.410;2023-08-17T14:25:12;100178.81;;;28.82;68.06
32789;BME280;19141;48.980;8.410;2023-08-17T14:27:37;100173.63;;;28.80;64.31
32789;BME280;19141;48.980;8.410;2023-08-17T14:30:03;100178.13;;;28.52;65.44
32789;BME280;19141;48.980;8.410;2023-08-17T14:32:29;100166.66;;;28.50;65.21
32789;BME280;19141;48.980;8.410;2023-08-17T14:34:54;100166.94;;;28.67;65.82
32789;BME280;19141;48.980;8.410;2023-08-17T14:37:20;100164.00;;;28.64;66.88
32789;BME280;19141;48.980;8.410;2023-08-17T14:39:45;100148.13;;;28.18;69.34
32789;BME280;19141;48.980;8.410;2023-08-17T14:42:12;100142.50;;;28.28;71.15
32789;BME280;19141;48.980;8.410;2023-08-17T14:44:37;100136.53;;;28.26;69.97
32789;BME280;19141;48.980;8.410;2023-08-17T14:47:03;100120.28;;;28.11;72.02
32789;BME280;19141;48.980;8.410;2023-08-17T14:49:28;100121.78;;;28.22;72.72
32789;BME280;19141;48.980;8.410;2023-08-17T14:51:54;100126.91;;;28.29;71.07
32789;BME280;19141;48.980;8.410;2023-08-17T14:54:19;100117.41;;;28.21;69.92
32789;BME280;19141;48.980;8.410;2023-08-17T14:56:45;100111.03;;;28.07;71.98
32789;BME280;19141;48.980;8.410;2023-08-17T14:59:10;100114.69;;;28.21;72.38
32789;BME280;19141;48.980;8.410;2023-08-17T15:01:36;100106.66;;;28.06;71.79
32789;BME280;19141;48.980;8.410;2023-08-17T15:04:01;100105.50;;;28.12;72.51
32789;BME280;19141;48.980;8.410;2023-08-17T15:06:27;100100.47;;;28.19;71.33
32789;BME280;19141;48.980;8.410;2023-08-17T15:08:52;100098.16;;;28.31;73.17
32789;BME280;19141;48.980;8.410;2023-08-17T15:11:18;100104.72;;;28.30;72.73
32789;BME280;19141;48.980;8.410;2023-08-17T15:13:43;100091.22;;;28.15;71.74
32789;BME280;19141;48.980;8.410;2023-08-17T15:16:10;100093.88;;;28.20;73.37
32789;BME280;19141;48.980;8.410;2023-08-17T15:18:35;100097.69;;;28.24;72.61
32789;BME280;19141;48.980;8.410;2023-08-17T15:21:01;100097.44;;;28.21;73.14
32789;BME280;19141;48.980;8.410;2023-08-17T15:23:26;100098.41;;;28.11;69.63
32789;BME280;19141;48.980;8.410;2023-08-17T15:25:52;100106.53;;;28.16;70.99
32789;BME280;19141;48.980;8.410;2023-08-17T15:28:17;100115.03;;;28.38;71.23
32789;BME280;19141;48.980;8.410;2023-08-17T15:30:42;100114.53;;;28.36;71.42
32789;BME280;19141;48.980;8.410;2023-08-17T15:33:08;100117.41;;;28.45;71.02
32789;BME280;19141;48.980;8.410;2023-08-17T15:35:33;100120.06;;;28.31;71.69
32789;BME280;19141;48.980;8.410;2023-08-17T15:37:59;100122.31;;;28.24;72.10
32789;BME280;19141;48.980;8.410;2023-08-17T15:40:24;100113.34;;;28.19;73.52
32789;BME280;19141;48.980;8.410;2023-08-17T15:42:49;100114.88;;;28.06;75.27
32789;BME280;19141;48.980;8.410;2023-08-17T15:45:15;100108.34;;;28.02;75.18
32789;BME280;19141;48.980;8.410;2023-08-17T15:47:43;100103.94;;;28.06;73.78
32789;BME280;19141;48.980;8.410;2023-08-17T15:50:09;100107.88;;;27.95;74.25
32789;BME280;19141;48.980;8.410;2023-08-17T15:52:34;100103.47;;;27.99;74.78
32789;BME280;19141;48.980;8.410;2023-08-17T15:54:59;100103.06;;;27.87;75.51
32789;BME280;19141;48.980;8.410;2023-08-17T15:57:25;100101.09;;;27.92;75.71
32789;BME280;19141;48.980;8.410;2023-08-17T15:59:50;100099.03;;;28.03;76.90
32789;BME280;19141;48.980;8.410;2023-08-17T16:02:17;100094.44;;;27.98;76.26
32789;BME280;19141;48.980;8.410;2023-08-17T16:04:43;100088.88;;;28.03;77.01
32789;BME280;19141;48.980;8.410;2023-08-17T16:07:08;100089.47;;;28.00;76.23
32789;BME280;19141;48.980;8.410;2023-08-17T16:09:34;100074.47;;;27.98;77.42
32789;BME280;19141;48.980;8.410;2023-08-17T16:11:59;100067.31;;;27.78;78.06
32789;BME280;19141;48.980;8.410;2023-08-17T16:14:24;100067.53;;;27.81;78.49
32789;BME280;19141;48.980;8.410;2023-08-17T16:16:50;100059.34;;;27.81;78.81
32789;BME280;19141;48.980;8.410;2023-08-17T16:19:15;100064.84;;;27.76;80.54
32789;BME280;19141;48.980;8.410;2023-08-17T16:21:41;100066.03;;;27.70;80.03
32789;BME280;19141;48.980;8.410;2023-08-17T16:24:06;100063.19;;;27.51;79.23
32789;BME280;19141;48.980;8.410;2023-08-17T16:26:32;100069.97;;;27.59;79.35
32789;BME280;19141;48.980;8.410;2023-08-17T16:28:57;100072.16;;;27.57;79.67
32789;BME280;19141;48.980;8.410;2023-08-17T16:31:22;100081.47;;;27.56;81.65
32789;BME280;19141;48.980;8.410;2023-08-17T16:33:48;100082.63;;;27.50;81.71
32789;BME280;19141;48.980;8.410;2023-08-17T16:36:13;100091.47;;;27.42;82.29
32789;BME280;19141;48.980;8.410;2023-08-17T16:38:39;100083.09;;;27.33;82.98
32789;BME280;19141;48.980;8.410;2023-08-17T16:41:04;100104.88;;;27.38;82.55
32789;BME280;19141;48.980;8.410;2023-08-17T16:43:30;100104.66;;;27.35;82.69
32789;BME280;19141;48.980;8.410;2023-08-17T16:45:55;100104.38;;;27.36;83.96
32789;BME280;19141;48.980;8.410;2023-08-17T16:48:21;100109.63;;;27.33;83.39
32789;BME280;19141;48.980;8.410;2023-08-17T16:50:46;100115.91;;;27.33;83.91
32789;BME280;19141;48.980;8.410;2023-08-17T16:53:11;100118.38;;;27.29;84.75
32789;BME280;19141;48.980;8.410;2023-08-17T16:55:37;100125.50;;;27.25;84.70
32789;BME280;19141;48.980;8.410;2023-08-17T16:58:02;100127.19;;;27.21;82.69
32789;BME280;19141;48.980;8.410;2023-08-17T17:00:29;100127.19;;;27.21;81.21
32789;BME280;19141;48.980;8.410;2023-08-17T17:02:54;100125.63;;;27.15;82.27
32789;BME280;19141;48.980;8.410;2023-08-17T17:05:20;100122.88;;;27.15;81.24
32789;BME280;19141;48.980;8.410;2023-08-17T17:07:45;100115.22;;;27.12;81.68
32789;BME280;19141;48.980;8.410;2023-08-17T17:10:10;100119.06;;;27.11;82.22